sensor_id;sensor_type;location;lat;lon;timestamp;P1;durP1;ratioP1;P2;durP2;ratioP2
47659;SDS011;33403;43.608;1.458;2023-07-20T00:00:25;10.45;;;5.75;;
47659;SDS011;33403;43.608;1.458;2023-07-20T00:02:51;9.52;;;5.50;;
47659;SDS011;33403;43.608;1.458;2023-07-20T00:05:17;10.75;;;5.93;;
47659;SDS011;33403;43.608;1.458;2023-07-20T00:07:49;12.05;;;5.70;;
47659;SDS011;33403;43.608;1.458;2023-07-20T00:10:17;11.38;;;5.40;;
47659;SDS011;33403;43.608;1.458;2023-07-20T00:12:43;11.68;;;5.57;;
47659;SDS011;33403;43.608;1.458;2023-07-20T00:15:12;9.70;;;5.20;;
47659;SDS011;33403;43.608;1.458;2023-07-20T00:17:38;11.18;;;5.63;;
47659;SDS011;33403;43.608;1.458;2023-07-20T00:20:05;12.60;;;5.50;;
47659;SDS011;33403;43.608;1.458;2023-07-20T00:22:31;10.55;;;5.50;;
47659;SDS011;33403;43.608;1.458;2023-07-20T00:24:56;11.73;;;5.32;;
47659;SDS011;33403;43.608;1.458;2023-07-20T00:27:22;10.82;;;5.80;;
47659;SDS011;33403;43.608;1.458;2023-07-20T00:29:48;9.65;;;5.30;;
47659;SDS011;33403;43.608;1.458;2023-07-20T00:32:13;7.93;;;5.20;;
47659;SDS011;33403;43.608;1.458;2023-07-20T00:34:39;7.93;;;5.30;;
47659;SDS011;33403;43.608;1.458;2023-07-20T00:37:04;10.73;;;5.40;;
47659;SDS011;33403;43.608;1.458;2023-07-20T00:39:30;9.00;;;5.60;;
47659;SDS011;33403;43.608;1.458;2023-07-20T00:41:56;10.80;;;5.65;;
47659;SDS011;33403;43.608;1.458;2023-07-20T00:44:22;10.25;;;5.20;;
47659;SDS011;33403;43.608;1.458;2023-07-20T00:46:48;8.23;;;5.53;;
47659;SDS011;33403;43.608;1.458;2023-07-20T00:49:14;8.25;;;5.10;;
47659;SDS011;33403;43.608;1.458;2023-07-20T00:51:41;7.63;;;5.43;;
47659;SDS011;33403;43.608;1.458;2023-07-20T00:54:07;9.77;;;5.28;;
47659;SDS011;33403;43.608;1.458;2023-07-20T00:56:33;8.88;;;4.80;;
47659;SDS011;33403;43.608;1.458;2023-07-20T00:58:59;9.80;;;5.45;;
47659;SDS011;33403;43.608;1.458;2023-07-20T01:01:24;9.02;;;5.38;;
47659;SDS011;33403;43.608;1.458;2023-07-20T01:03:50;8.48;;;5.25;;
47659;SDS011;33403;43.608;1.458;2023-07-20T01:06:29;8.23;;;5.07;;
47659;SDS011;33403;43.608;1.458;2023-07-20T01:14:07;7.38;;;4.85;;
47659;SDS011;33403;43.608;1.458;2023-07-20T01:16:33;9.38;;;4.95;;
47659;SDS011;33403;43.608;1.458;2023-07-20T01:18:59;10.23;;;5.28;;
47659;SDS011;33403;43.608;1.458;2023-07-20T01:21:27;6.75;;;4.97;;
47659;SDS011;33403;43.608;1.458;2023-07-20T01:32:27;10.20;;;5.40;;
47659;SDS011;33403;43.608;1.458;2023-07-20T01:34:56;7.45;;;4.88;;
47659;SDS011;33403;43.608;1.458;2023-07-20T01:37:23;9.38;;;4.85;;
47659;SDS011;33403;43.608;1.458;2023-07-20T01:39:53;12.20;;;5.53;;
47659;SDS011;33403;43.608;1.458;2023-07-20T01:42:22;9.05;;;5.38;;
47659;SDS011;33403;43.608;1.458;2023-07-20T01:44:52;8.55;;;5.13;;
47659;SDS011;33403;43.608;1.458;2023-07-20T01:47:18;7.20;;;5.03;;
47659;SDS011;33403;43.608;1.458;2023-07-20T01:49:44;8.05;;;5.00;;
47659;SDS011;33403;43.608;1.458;2023-07-20T01:52:10;8.52;;;5.03;;
47659;SDS011;33403;43.608;1.458;2023-07-20T01:54:36;10.30;;;5.30;;
47659;SDS011;33403;43.608;1.458;2023-07-20T01:57:02;8.27;;;4.80;;
47659;SDS011;33403;43.608;1.458;2023-07-20T01:59:27;9.07;;;5.20;;
47659;SDS011;33403;43.608;1.458;2023-07-20T02:01:53;10.02;;;5.00;;
47659;SDS011;33403;43.608;1.458;2023-07-20T02:04:19;9.38;;;5.40;;
47659;SDS011;33403;43.608;1.458;2023-07-20T02:06:44;8.38;;;5.40;;
47659;SDS011;33403;43.608;1.458;2023-07-20T02:09:10;8.02;;;4.90;;
47659;SDS011;33403;43.608;1.458;2023-07-20T02:11:35;10.00;;;5.05;;
47659;SDS011;33403;43.608;1.458;2023-07-20T02:14:01;8.45;;;5.05;;
47659;SDS011;33403;43.608;1.458;2023-07-20T02:16:27;9.00;;;5.38;;
47659;SDS011;33403;43.608;1.458;2023-07-20T02:18:52;6.85;;;4.78;;
47659;SDS011;33403;43.608;1.458;2023-07-20T02:21:18;8.35;;;5.22;;
47659;SDS011;33403;43.608;1.458;2023-07-20T02:23:44;10.50;;;5.40;;
47659;SDS011;33403;43.608;1.458;2023-07-20T02:26:09;8.13;;;4.90;;
47659;SDS011;33403;43.608;1.458;2023-07-20T02:28:35;7.57;;;5.15;;
47659;SDS011;33403;43.608;1.458;2023-07-20T02:31:00;10.48;;;5.40;;
47659;SDS011;33403;43.608;1.458;2023-07-20T02:33:26;9.88;;;5.10;;
47659;SDS011;33403;43.608;1.458;2023-07-20T02:35:52;7.82;;;5.32;;
47659;SDS011;33403;43.608;1.458;2023-07-20T02:38:17;10.00;;;5.25;;
47659;SDS011;33403;43.608;1.458;2023-07-20T02:40:43;8.43;;;5.60;;
47659;SDS011;33403;43.608;1.458;2023-07-20T02:43:09;7.78;;;4.80;;
47659;SDS011;33403;43.608;1.458;2023-07-20T02:45:35;8.10;;;4.85;;
47659;SDS011;33403;43.608;1.458;2023-07-20T02:48:04;6.70;;;5.07;;
47659;SDS011;33403;43.608;1.458;2023-07-20T02:50:33;10.45;;;5.20;;
47659;SDS011;33403;43.608;1.458;2023-07-20T02:52:59;8.82;;;4.90;;
47659;SDS011;33403;43.608;1.458;2023-07-20T02:55:25;7.55;;;5.30;;
47659;SDS011;33403;43.608;1.458;2023-07-20T02:57:51;8.13;;;5.00;;
47659;SDS011;33403;43.608;1.458;2023-07-20T03:00:17;8.02;;;4.97;;
47659;SDS011;33403;43.608;1.458;2023-07-20T03:02:44;7.72;;;4.93;;
47659;SDS011;33403;43.608;1.458;2023-07-20T03:05:12;7.57;;;5.18;;
47659;SDS011;33403;43.608;1.458;2023-07-20T03:07:38;9.10;;;5.38;;
47659;SDS011;33403;43.608;1.458;2023-07-20T03:10:05;9.95;;;5.25;;
47659;SDS011;33403;43.608;1.458;2023-07-20T03:12:34;8.13;;;5.18;;
47659;SDS011;33403;43.608;1.458;2023-07-20T03:15:00;7.35;;;5.20;;
47659;SDS011;33403;43.608;1.458;2023-07-20T03:17:26;8.50;;;5.13;;
47659;SDS011;33403;43.608;1.458;2023-07-20T03:19:52;8.90;;;4.78;;
47659;SDS011;33403;43.608;1.458;2023-07-20T03:22:17;7.57;;;5.00;;
47659;SDS011;33403;43.608;1.458;2023-07-20T03:24:43;7.93;;;4.80;;
47659;SDS011;33403;43.608;1.458;2023-07-20T03:27:09;8.27;;;4.85;;
47659;SDS011;33403;43.608;1.458;2023-07-20T03:29:34;9.82;;;5.28;;
47659;SDS011;33403;43.608;1.458;2023-07-20T03:32:00;10.45;;;4.97;;
47659;SDS011;33403;43.608;1.458;2023-07-20T03:34:25;9.73;;;5.20;;
47659;SDS011;33403;43.608;1.458;2023-07-20T03:36:51;8.38;;;4.75;;
47659;SDS011;33403;43.608;1.458;2023-07-20T03:39:17;8.57;;;4.47;;
47659;SDS011;33403;43.608;1.458;2023-07-20T03:41:42;8.55;;;4.78;;
47659;SDS011;33403;43.608;1.458;2023-07-20T03:44:08;7.13;;;4.43;;
47659;SDS011;33403;43.608;1.458;2023-07-20T03:46:34;6.70;;;4.70;;
47659;SDS011;33403;43.608;1.458;2023-07-20T03:48:59;6.25;;;4.47;;
47659;SDS011;33403;43.608;1.458;2023-07-20T03:51:25;8.23;;;4.65;;
47659;SDS011;33403;43.608;1.458;2023-07-20T03:53:51;7.45;;;4.70;;
47659;SDS011;33403;43.608;1.458;2023-07-20T03:56:17;6.72;;;4.70;;
47659;SDS011;33403;43.608;1.458;2023-07-20T03:58:42;7.75;;;4.82;;
47659;SDS011;33403;43.608;1.458;2023-07-20T04:01:08;9.88;;;4.60;;
47659;SDS011;33403;43.608;1.458;2023-07-20T04:03:34;8.38;;;5.07;;
47659;SDS011;33403;43.608;1.458;2023-07-20T04:06:01;7.00;;;4.45;;
47659;SDS011;33403;43.608;1.458;2023-07-20T04:08:27;8.27;;;4.60;;
47659;SDS011;33403;43.608;1.458;2023-07-20T04:10:52;7.82;;;4.43;;
47659;SDS011;33403;43.608;1.458;2023-07-20T04:13:18;7.43;;;4.63;;
47659;SDS011;33403;43.608;1.458;2023-07-20T04:15:44;6.30;;;4.50;;
47659;SDS011;33403;43.608;1.458;2023-07-20T04:18:10;7.15;;;4.28;;
47659;SDS011;33403;43.608;1.458;2023-07-20T04:20:35;6.20;;;4.05;;
47659;SDS011;33403;43.608;1.458;2023-07-20T04:23:01;7.35;;;4.40;;
47659;SDS011;33403;43.608;1.458;2023-07-20T04:25:27;7.43;;;4.10;;
47659;SDS011;33403;43.608;1.458;2023-07-20T04:27:52;5.68;;;3.78;;
47659;SDS011;33403;43.608;1.458;2023-07-20T04:30:18;6.38;;;3.95;;
47659;SDS011;33403;43.608;1.458;2023-07-20T04:32:48;7.32;;;3.95;;
47659;SDS011;33403;43.608;1.458;2023-07-20T04:35:17;5.10;;;3.60;;
47659;SDS011;33403;43.608;1.458;2023-07-20T04:38:03;6.65;;;4.07;;
47659;SDS011;33403;43.608;1.458;2023-07-20T04:40:29;5.72;;;4.10;;
47659;SDS011;33403;43.608;1.458;2023-07-20T04:42:54;5.47;;;3.70;;
47659;SDS011;33403;43.608;1.458;2023-07-20T04:45:20;5.40;;;3.42;;
47659;SDS011;33403;43.608;1.458;2023-07-20T04:47:48;6.03;;;3.70;;
47659;SDS011;33403;43.608;1.458;2023-07-20T04:50:16;7.78;;;4.00;;
47659;SDS011;33403;43.608;1.458;2023-07-20T04:52:42;6.25;;;3.33;;
47659;SDS011;33403;43.608;1.458;2023-07-20T04:55:07;5.00;;;3.20;;
47659;SDS011;33403;43.608;1.458;2023-07-20T04:57:34;5.35;;;3.38;;
47659;SDS011;33403;43.608;1.458;2023-07-20T04:59:59;7.53;;;3.85;;
47659;SDS011;33403;43.608;1.458;2023-07-20T05:02:25;6.43;;;3.50;;
47659;SDS011;33403;43.608;1.458;2023-07-20T05:04:51;7.90;;;3.60;;
47659;SDS011;33403;43.608;1.458;2023-07-20T05:07:16;5.68;;;3.15;;
47659;SDS011;33403;43.608;1.458;2023-07-20T05:09:42;5.82;;;3.22;;
47659;SDS011;33403;43.608;1.458;2023-07-20T05:12:08;4.20;;;3.10;;
47659;SDS011;33403;43.608;1.458;2023-07-20T05:14:33;5.85;;;3.20;;
47659;SDS011;33403;43.608;1.458;2023-07-20T05:16:59;4.18;;;3.20;;
47659;SDS011;33403;43.608;1.458;2023-07-20T05:19:25;5.65;;;3.10;;
47659;SDS011;33403;43.608;1.458;2023-07-20T05:21:50;4.68;;;3.15;;
47659;SDS011;33403;43.608;1.458;2023-07-20T05:24:16;4.35;;;2.92;;
47659;SDS011;33403;43.608;1.458;2023-07-20T05:26:42;5.47;;;2.80;;
47659;SDS011;33403;43.608;1.458;2023-07-20T05:29:07;6.38;;;3.00;;
47659;SDS011;33403;43.608;1.458;2023-07-20T05:31:33;7.22;;;3.05;;
47659;SDS011;33403;43.608;1.458;2023-07-20T05:33:59;4.95;;;2.92;;
47659;SDS011;33403;43.608;1.458;2023-07-20T05:36:24;5.93;;;3.03;;
47659;SDS011;33403;43.608;1.458;2023-07-20T05:38:50;3.60;;;2.85;;
47659;SDS011;33403;43.608;1.458;2023-07-20T05:41:15;6.03;;;2.78;;
47659;SDS011;33403;43.608;1.458;2023-07-20T05:43:41;4.25;;;2.90;;
47659;SDS011;33403;43.608;1.458;2023-07-20T05:46:07;5.60;;;3.10;;
47659;SDS011;33403;43.608;1.458;2023-07-20T05:48:33;4.57;;;2.80;;
47659;SDS011;33403;43.608;1.458;2023-07-20T05:50:58;5.43;;;3.20;;
47659;SDS011;33403;43.608;1.458;2023-07-20T05:53:24;4.80;;;2.75;;
47659;SDS011;33403;43.608;1.458;2023-07-20T05:55:53;3.60;;;2.80;;
47659;SDS011;33403;43.608;1.458;2023-07-20T05:58:19;5.63;;;3.13;;
47659;SDS011;33403;43.608;1.458;2023-07-20T06:00:48;4.05;;;3.20;;
47659;SDS011;33403;43.608;1.458;2023-07-20T06:03:14;5.85;;;2.90;;
47659;SDS011;33403;43.608;1.458;2023-07-20T06:05:41;5.95;;;3.30;;
47659;SDS011;33403;43.608;1.458;2023-07-20T06:08:07;3.67;;;2.65;;
47659;SDS011;33403;43.608;1.458;2023-07-20T06:10:33;4.45;;;2.63;;
47659;SDS011;33403;43.608;1.458;2023-07-20T06:12:59;6.85;;;2.75;;
47659;SDS011;33403;43.608;1.458;2023-07-20T06:15:28;3.90;;;2.70;;
47659;SDS011;33403;43.608;1.458;2023-07-20T06:17:57;3.55;;;2.47;;
47659;SDS011;33403;43.608;1.458;2023-07-20T06:20:23;4.57;;;2.80;;
47659;SDS011;33403;43.608;1.458;2023-07-20T06:22:49;5.38;;;2.85;;
47659;SDS011;33403;43.608;1.458;2023-07-20T06:25:15;4.97;;;2.90;;
47659;SDS011;33403;43.608;1.458;2023-07-20T06:27:41;4.53;;;2.90;;
47659;SDS011;33403;43.608;1.458;2023-07-20T06:30:07;5.13;;;2.85;;
47659;SDS011;33403;43.608;1.458;2023-07-20T06:32:33;7.07;;;2.60;;
47659;SDS011;33403;43.608;1.458;2023-07-20T06:34:59;6.13;;;2.50;;
47659;SDS011;33403;43.608;1.458;2023-07-20T06:37:24;3.30;;;2.50;;
47659;SDS011;33403;43.608;1.458;2023-07-20T06:39:51;4.95;;;2.60;;
47659;SDS011;33403;43.608;1.458;2023-07-20T06:42:16;6.78;;;3.05;;
47659;SDS011;33403;43.608;1.458;2023-07-20T06:44:42;5.68;;;3.03;;
47659;SDS011;33403;43.608;1.458;2023-07-20T06:47:07;3.10;;;2.42;;
47659;SDS011;33403;43.608;1.458;2023-07-20T06:49:33;4.72;;;2.67;;
47659;SDS011;33403;43.608;1.458;2023-07-20T06:51:59;3.90;;;2.65;;
47659;SDS011;33403;43.608;1.458;2023-07-20T06:54:24;4.43;;;2.60;;
47659;SDS011;33403;43.608;1.458;2023-07-20T06:56:50;4.78;;;2.80;;
47659;SDS011;33403;43.608;1.458;2023-07-20T06:59:16;5.75;;;2.70;;
47659;SDS011;33403;43.608;1.458;2023-07-20T07:01:42;5.00;;;2.45;;
47659;SDS011;33403;43.608;1.458;2023-07-20T07:04:07;4.25;;;2.50;;
47659;SDS011;33403;43.608;1.458;2023-07-20T07:06:33;6.43;;;2.78;;
47659;SDS011;33403;43.608;1.458;2023-07-20T07:08:59;4.53;;;2.70;;
47659;SDS011;33403;43.608;1.458;2023-07-20T07:11:25;4.57;;;2.97;;
47659;SDS011;33403;43.608;1.458;2023-07-20T07:13:50;3.55;;;2.75;;
47659;SDS011;33403;43.608;1.458;2023-07-20T07:16:16;5.57;;;2.53;;
47659;SDS011;33403;43.608;1.458;2023-07-20T07:18:47;4.28;;;2.50;;
47659;SDS011;33403;43.608;1.458;2023-07-20T07:21:13;4.18;;;2.67;;
47659;SDS011;33403;43.608;1.458;2023-07-20T07:23:39;5.10;;;2.65;;
47659;SDS011;33403;43.608;1.458;2023-07-20T07:26:05;5.57;;;2.38;;
47659;SDS011;33403;43.608;1.458;2023-07-20T07:28:30;5.20;;;2.47;;
47659;SDS011;33403;43.608;1.458;2023-07-20T07:30:56;2.88;;;2.50;;
47659;SDS011;33403;43.608;1.458;2023-07-20T07:33:22;4.57;;;2.55;;
47659;SDS011;33403;43.608;1.458;2023-07-20T07:35:51;3.45;;;2.42;;
47659;SDS011;33403;43.608;1.458;2023-07-20T07:38:17;4.20;;;2.45;;
47659;SDS011;33403;43.608;1.458;2023-07-20T07:40:44;5.07;;;2.60;;
47659;SDS011;33403;43.608;1.458;2023-07-20T07:43:10;7.75;;;2.60;;
47659;SDS011;33403;43.608;1.458;2023-07-20T07:45:35;4.30;;;2.33;;
47659;SDS011;33403;43.608;1.458;2023-07-20T07:48:04;5.22;;;2.80;;
47659;SDS011;33403;43.608;1.458;2023-07-20T07:50:30;4.97;;;2.08;;
47659;SDS011;33403;43.608;1.458;2023-07-20T07:52:56;3.63;;;2.38;;
47659;SDS011;33403;43.608;1.458;2023-07-20T07:55:22;5.15;;;2.30;;
47659;SDS011;33403;43.608;1.458;2023-07-20T07:57:49;8.43;;;2.60;;
47659;SDS011;33403;43.608;1.458;2023-07-20T08:00:14;5.72;;;2.35;;
47659;SDS011;33403;43.608;1.458;2023-07-20T08:02:43;3.58;;;1.95;;
47659;SDS011;33403;43.608;1.458;2023-07-20T08:05:11;2.80;;;2.30;;
47659;SDS011;33403;43.608;1.458;2023-07-20T08:07:37;3.55;;;2.38;;
47659;SDS011;33403;43.608;1.458;2023-07-20T08:10:03;3.63;;;2.42;;
47659;SDS011;33403;43.608;1.458;2023-07-20T08:12:30;5.63;;;2.45;;
47659;SDS011;33403;43.608;1.458;2023-07-20T08:14:55;4.75;;;2.33;;
47659;SDS011;33403;43.608;1.458;2023-07-20T08:17:21;3.30;;;2.75;;
47659;SDS011;33403;43.608;1.458;2023-07-20T08:19:47;4.05;;;2.50;;
47659;SDS011;33403;43.608;1.458;2023-07-20T08:22:12;6.10;;;2.53;;
47659;SDS011;33403;43.608;1.458;2023-07-20T08:24:39;5.88;;;2.40;;
47659;SDS011;33403;43.608;1.458;2023-07-20T08:27:05;5.35;;;2.50;;
47659;SDS011;33403;43.608;1.458;2023-07-20T08:29:31;4.57;;;2.35;;
47659;SDS011;33403;43.608;1.458;2023-07-20T08:31:57;5.22;;;2.40;;
47659;SDS011;33403;43.608;1.458;2023-07-20T08:34:22;4.05;;;2.30;;
47659;SDS011;33403;43.608;1.458;2023-07-20T08:36:48;4.38;;;2.33;;
47659;SDS011;33403;43.608;1.458;2023-07-20T08:39:14;5.10;;;2.38;;
47659;SDS011;33403;43.608;1.458;2023-07-20T08:41:40;3.35;;;2.30;;
47659;SDS011;33403;43.608;1.458;2023-07-20T08:44:08;5.03;;;2.28;;
47659;SDS011;33403;43.608;1.458;2023-07-20T08:46:35;3.80;;;2.30;;
47659;SDS011;33403;43.608;1.458;2023-07-20T08:49:03;4.47;;;2.22;;
47659;SDS011;33403;43.608;1.458;2023-07-20T08:51:30;6.63;;;2.35;;
47659;SDS011;33403;43.608;1.458;2023-07-20T08:53:57;6.72;;;2.30;;
47659;SDS011;33403;43.608;1.458;2023-07-20T08:56:23;5.57;;;1.98;;
47659;SDS011;33403;43.608;1.458;2023-07-20T08:58:51;4.93;;;1.85;;
47659;SDS011;33403;43.608;1.458;2023-07-20T09:01:19;5.25;;;2.08;;
47659;SDS011;33403;43.608;1.458;2023-07-20T09:03:45;3.83;;;2.15;;
47659;SDS011;33403;43.608;1.458;2023-07-20T09:06:11;3.53;;;1.98;;
47659;SDS011;33403;43.608;1.458;2023-07-20T09:08:41;3.50;;;1.90;;
47659;SDS011;33403;43.608;1.458;2023-07-20T09:11:07;4.25;;;1.98;;
47659;SDS011;33403;43.608;1.458;2023-07-20T09:13:33;4.90;;;2.13;;
47659;SDS011;33403;43.608;1.458;2023-07-20T09:15:59;3.88;;;2.00;;
47659;SDS011;33403;43.608;1.458;2023-07-20T09:18:26;5.90;;;2.00;;
47659;SDS011;33403;43.608;1.458;2023-07-20T09:20:53;3.63;;;2.28;;
47659;SDS011;33403;43.608;1.458;2023-07-20T09:23:38;3.55;;;1.88;;
47659;SDS011;33403;43.608;1.458;2023-07-20T09:26:10;3.50;;;2.03;;
47659;SDS011;33403;43.608;1.458;2023-07-20T09:28:48;4.50;;;2.30;;
47659;SDS011;33403;43.608;1.458;2023-07-20T09:31:17;8.00;;;2.30;;
47659;SDS011;33403;43.608;1.458;2023-07-20T09:33:44;3.30;;;1.95;;
47659;SDS011;33403;43.608;1.458;2023-07-20T09:36:10;6.22;;;2.10;;
47659;SDS011;33403;43.608;1.458;2023-07-20T09:38:42;5.55;;;2.03;;
47659;SDS011;33403;43.608;1.458;2023-07-20T09:41:08;3.03;;;2.03;;
47659;SDS011;33403;43.608;1.458;2023-07-20T09:43:39;4.85;;;2.50;;
47659;SDS011;33403;43.608;1.458;2023-07-20T09:46:06;3.25;;;1.70;;
47659;SDS011;33403;43.608;1.458;2023-07-20T09:48:32;5.30;;;2.10;;
47659;SDS011;33403;43.608;1.458;2023-07-20T09:50:58;3.35;;;1.90;;
47659;SDS011;33403;43.608;1.458;2023-07-20T09:53:24;4.60;;;2.17;;
47659;SDS011;33403;43.608;1.458;2023-07-20T09:55:51;5.82;;;2.10;;
47659;SDS011;33403;43.608;1.458;2023-07-20T09:58:18;2.95;;;2.33;;
47659;SDS011;33403;43.608;1.458;2023-07-20T10:00:45;3.45;;;1.90;;
47659;SDS011;33403;43.608;1.458;2023-07-20T10:03:19;3.95;;;2.25;;
47659;SDS011;33403;43.608;1.458;2023-07-20T10:05:47;4.70;;;2.08;;
47659;SDS011;33403;43.608;1.458;2023-07-20T10:08:25;2.75;;;2.00;;
47659;SDS011;33403;43.608;1.458;2023-07-20T10:10:53;3.42;;;2.20;;
47659;SDS011;33403;43.608;1.458;2023-07-20T10:13:21;3.78;;;2.30;;
47659;SDS011;33403;43.608;1.458;2023-07-20T10:15:56;3.70;;;2.20;;
47659;SDS011;33403;43.608;1.458;2023-07-20T10:18:38;7.07;;;2.28;;
47659;SDS011;33403;43.608;1.458;2023-07-20T10:21:13;3.97;;;2.00;;
47659;SDS011;33403;43.608;1.458;2023-07-20T10:23:41;6.55;;;2.25;;
47659;SDS011;33403;43.608;1.458;2023-07-20T10:26:07;4.60;;;2.25;;
47659;SDS011;33403;43.608;1.458;2023-07-20T10:28:34;4.80;;;2.53;;
47659;SDS011;33403;43.608;1.458;2023-07-20T10:30:59;5.78;;;2.53;;
47659;SDS011;33403;43.608;1.458;2023-07-20T10:33:25;4.00;;;2.30;;
47659;SDS011;33403;43.608;1.458;2023-07-20T10:35:52;6.03;;;2.22;;
47659;SDS011;33403;43.608;1.458;2023-07-20T10:41:19;3.33;;;2.33;;
47659;SDS011;33403;43.608;1.458;2023-07-20T10:43:46;7.18;;;2.55;;
47659;SDS011;33403;43.608;1.458;2023-07-20T10:46:13;3.75;;;2.55;;
47659;SDS011;33403;43.608;1.458;2023-07-20T10:51:24;7.70;;;2.60;;
47659;SDS011;33403;43.608;1.458;2023-07-20T10:53:50;4.97;;;2.50;;
47659;SDS011;33403;43.608;1.458;2023-07-20T10:56:21;5.32;;;2.55;;
47659;SDS011;33403;43.608;1.458;2023-07-20T10:58:48;5.28;;;2.50;;
47659;SDS011;33403;43.608;1.458;2023-07-20T11:01:15;4.80;;;2.63;;
47659;SDS011;33403;43.608;1.458;2023-07-20T11:03:42;4.82;;;2.40;;
47659;SDS011;33403;43.608;1.458;2023-07-20T11:06:29;5.88;;;2.40;;
47659;SDS011;33403;43.608;1.458;2023-07-20T11:09:04;4.70;;;2.60;;
47659;SDS011;33403;43.608;1.458;2023-07-20T11:11:30;8.15;;;2.70;;
47659;SDS011;33403;43.608;1.458;2023-07-20T11:13:59;3.47;;;2.10;;
47659;SDS011;33403;43.608;1.458;2023-07-20T11:16:39;4.72;;;2.30;;
47659;SDS011;33403;43.608;1.458;2023-07-20T11:19:12;4.38;;;2.22;;
47659;SDS011;33403;43.608;1.458;2023-07-20T11:21:58;7.53;;;2.40;;
47659;SDS011;33403;43.608;1.458;2023-07-20T11:24:24;4.90;;;2.40;;
47659;SDS011;33403;43.608;1.458;2023-07-20T11:26:50;6.43;;;2.42;;
47659;SDS011;33403;43.608;1.458;2023-07-20T11:29:18;3.45;;;2.60;;
47659;SDS011;33403;43.608;1.458;2023-07-20T11:31:49;6.57;;;2.30;;
47659;SDS011;33403;43.608;1.458;2023-07-20T11:34:15;3.10;;;2.30;;
47659;SDS011;33403;43.608;1.458;2023-07-20T11:36:42;3.45;;;2.75;;
47659;SDS011;33403;43.608;1.458;2023-07-20T11:39:09;4.72;;;2.40;;
47659;SDS011;33403;43.608;1.458;2023-07-20T11:41:36;4.50;;;2.30;;
47659;SDS011;33403;43.608;1.458;2023-07-20T11:44:02;7.00;;;2.70;;
47659;SDS011;33403;43.608;1.458;2023-07-20T11:46:28;4.45;;;2.20;;
47659;SDS011;33403;43.608;1.458;2023-07-20T11:49:00;3.50;;;2.10;;
47659;SDS011;33403;43.608;1.458;2023-07-20T11:51:28;4.13;;;2.38;;
47659;SDS011;33403;43.608;1.458;2023-07-20T11:53:54;4.45;;;2.22;;
47659;SDS011;33403;43.608;1.458;2023-07-20T11:56:22;4.03;;;2.40;;
47659;SDS011;33403;43.608;1.458;2023-07-20T11:58:49;4.22;;;2.40;;
47659;SDS011;33403;43.608;1.458;2023-07-20T12:01:15;3.45;;;2.30;;
47659;SDS011;33403;43.608;1.458;2023-07-20T12:03:42;4.75;;;2.30;;
47659;SDS011;33403;43.608;1.458;2023-07-20T12:06:09;3.25;;;2.33;;
47659;SDS011;33403;43.608;1.458;2023-07-20T12:08:37;4.55;;;2.33;;
47659;SDS011;33403;43.608;1.458;2023-07-20T12:11:05;5.50;;;2.30;;
47659;SDS011;33403;43.608;1.458;2023-07-20T12:13:37;4.68;;;2.58;;
47659;SDS011;33403;43.608;1.458;2023-07-20T12:16:13;4.45;;;2.30;;
47659;SDS011;33403;43.608;1.458;2023-07-20T12:18:40;7.25;;;2.40;;
47659;SDS011;33403;43.608;1.458;2023-07-20T12:21:06;3.58;;;2.25;;
47659;SDS011;33403;43.608;1.458;2023-07-20T12:23:37;3.42;;;2.00;;
47659;SDS011;33403;43.608;1.458;2023-07-20T12:26:08;3.45;;;2.15;;
47659;SDS011;33403;43.608;1.458;2023-07-20T12:28:44;3.58;;;2.10;;
47659;SDS011;33403;43.608;1.458;2023-07-20T12:31:09;3.40;;;2.13;;
47659;SDS011;33403;43.608;1.458;2023-07-20T12:33:38;3.95;;;2.47;;
47659;SDS011;33403;43.608;1.458;2023-07-20T12:36:04;4.65;;;2.22;;
47659;SDS011;33403;43.608;1.458;2023-07-20T12:38:30;3.72;;;2.30;;
47659;SDS011;33403;43.608;1.458;2023-07-20T12:40:56;3.47;;;2.15;;
47659;SDS011;33403;43.608;1.458;2023-07-20T12:43:23;4.43;;;2.20;;
47659;SDS011;33403;43.608;1.458;2023-07-20T12:45:49;3.20;;;2.25;;
47659;SDS011;33403;43.608;1.458;2023-07-20T12:48:15;4.80;;;2.55;;
47659;SDS011;33403;43.608;1.458;2023-07-20T12:50:40;4.55;;;2.55;;
47659;SDS011;33403;43.608;1.458;2023-07-20T12:53:06;4.32;;;2.35;;
47659;SDS011;33403;43.608;1.458;2023-07-20T12:55:32;3.15;;;2.30;;
47659;SDS011;33403;43.608;1.458;2023-07-20T12:57:58;3.50;;;2.30;;
47659;SDS011;33403;43.608;1.458;2023-07-20T13:00:24;4.63;;;2.47;;
47659;SDS011;33403;43.608;1.458;2023-07-20T13:02:52;4.35;;;2.47;;
47659;SDS011;33403;43.608;1.458;2023-07-20T13:05:18;3.92;;;2.30;;
47659;SDS011;33403;43.608;1.458;2023-07-20T13:07:43;2.90;;;2.10;;
47659;SDS011;33403;43.608;1.458;2023-07-20T13:10:10;5.95;;;2.33;;
47659;SDS011;33403;43.608;1.458;2023-07-20T13:12:36;3.35;;;2.20;;
47659;SDS011;33403;43.608;1.458;2023-07-20T13:15:03;5.30;;;2.30;;
47659;SDS011;33403;43.608;1.458;2023-07-20T13:17:34;4.25;;;2.20;;
47659;SDS011;33403;43.608;1.458;2023-07-20T13:20:00;4.40;;;2.15;;
47659;SDS011;33403;43.608;1.458;2023-07-20T13:22:26;4.60;;;2.28;;
47659;SDS011;33403;43.608;1.458;2023-07-20T13:24:52;5.07;;;2.55;;
47659;SDS011;33403;43.608;1.458;2023-07-20T13:27:18;4.47;;;2.17;;
47659;SDS011;33403;43.608;1.458;2023-07-20T13:29:44;7.35;;;2.53;;
47659;SDS011;33403;43.608;1.458;2023-07-20T13:32:12;5.03;;;2.38;;
47659;SDS011;33403;43.608;1.458;2023-07-20T13:34:39;3.72;;;2.33;;
47659;SDS011;33403;43.608;1.458;2023-07-20T13:37:05;6.20;;;2.33;;
47659;SDS011;33403;43.608;1.458;2023-07-20T13:39:31;4.47;;;2.38;;
47659;SDS011;33403;43.608;1.458;2023-07-20T13:41:56;4.75;;;2.20;;
47659;SDS011;33403;43.608;1.458;2023-07-20T13:44:22;6.07;;;2.45;;
47659;SDS011;33403;43.608;1.458;2023-07-20T13:46:48;3.75;;;2.45;;
47659;SDS011;33403;43.608;1.458;2023-07-20T13:49:14;3.38;;;2.08;;
47659;SDS011;33403;43.608;1.458;2023-07-20T13:51:43;3.17;;;2.30;;
47659;SDS011;33403;43.608;1.458;2023-07-20T13:54:09;4.35;;;2.40;;
47659;SDS011;33403;43.608;1.458;2023-07-20T13:56:35;6.40;;;2.30;;
47659;SDS011;33403;43.608;1.458;2023-07-20T13:59:00;4.60;;;2.25;;
47659;SDS011;33403;43.608;1.458;2023-07-20T14:01:26;2.90;;;2.40;;
47659;SDS011;33403;43.608;1.458;2023-07-20T14:03:53;6.80;;;2.50;;
47659;SDS011;33403;43.608;1.458;2023-07-20T14:06:19;3.97;;;2.20;;
47659;SDS011;33403;43.608;1.458;2023-07-20T14:08:45;3.53;;;2.20;;
47659;SDS011;33403;43.608;1.458;2023-07-20T14:11:12;4.32;;;2.40;;
47659;SDS011;33403;43.608;1.458;2023-07-20T14:13:38;6.00;;;2.28;;
47659;SDS011;33403;43.608;1.458;2023-07-20T14:16:04;3.33;;;2.40;;
47659;SDS011;33403;43.608;1.458;2023-07-20T14:18:29;6.22;;;2.20;;
47659;SDS011;33403;43.608;1.458;2023-07-20T14:20:55;3.60;;;2.40;;
47659;SDS011;33403;43.608;1.458;2023-07-20T14:23:21;4.65;;;2.70;;
47659;SDS011;33403;43.608;1.458;2023-07-20T14:25:47;4.07;;;2.35;;
47659;SDS011;33403;43.608;1.458;2023-07-20T14:28:13;5.38;;;2.55;;
47659;SDS011;33403;43.608;1.458;2023-07-20T14:30:39;4.35;;;2.25;;
47659;SDS011;33403;43.608;1.458;2023-07-20T14:33:05;3.88;;;2.35;;
47659;SDS011;33403;43.608;1.458;2023-07-20T14:35:30;5.43;;;2.40;;
47659;SDS011;33403;43.608;1.458;2023-07-20T14:37:56;3.75;;;2.17;;
47659;SDS011;33403;43.608;1.458;2023-07-20T14:40:22;3.28;;;2.30;;
47659;SDS011;33403;43.608;1.458;2023-07-20T14:42:47;4.35;;;2.22;;
47659;SDS011;33403;43.608;1.458;2023-07-20T14:45:13;3.95;;;2.25;;
47659;SDS011;33403;43.608;1.458;2023-07-20T14:47:39;5.07;;;2.50;;
47659;SDS011;33403;43.608;1.458;2023-07-20T14:50:05;3.97;;;2.20;;
47659;SDS011;33403;43.608;1.458;2023-07-20T14:52:31;3.75;;;2.40;;
47659;SDS011;33403;43.608;1.458;2023-07-20T14:54:57;4.97;;;2.35;;
47659;SDS011;33403;43.608;1.458;2023-07-20T14:57:23;5.47;;;2.67;;
47659;SDS011;33403;43.608;1.458;2023-07-20T14:59:51;5.03;;;2.40;;
47659;SDS011;33403;43.608;1.458;2023-07-20T15:02:18;4.72;;;2.50;;
47659;SDS011;33403;43.608;1.458;2023-07-20T15:04:50;3.22;;;2.22;;